Lexington, Indiana
Current Conditions -  °F | °C
As of 11:13 PM on Friday 19 Dec 2014 (Local Time) from KIMS Reporting Station
Overcast Overcast  
Wind Chill: 30°   Ceiling: 2000
Heat Index: 30°   Visibility: 10mi
Dew Point: 21°   Wind: 3mph
Humidity: 69%   Direction: 70°ENE
Pressure: 30.27"   Gusts: NA
Location:  38.65°N, 85.63°W
Report Text: KIMS 200413Z AUTO 07003KT 10SM OVC020 M01/M06 A3027 RMK AO1
Loading
Personal Weather Stations






























Interactive Weather Map New forecast layout! Learn more

10-Day Weather Forecast

Advertisements
Track Severe Weather on mobile